Kasagimaru — JJ3905 — position and weather

sailwx.info

Track history (hours):
 
Tides and Currents Weather Stations Pressure Air Temp Water Temp Dewpoint Dewpoint Depression Visibility Wind Speed Wind Dir Waves Ship Positions

Kasagimaru

Last reported at 2015-Sep-03 03:33 UTC. Time now 2015-Sep-03 04:35 UTC.
Position N 34°33' E 135°27'.

Length 42 m; draft 3.5 m.

Type: Tug. MMSI: 431300268.

Date/timePositionNaut miles runAvg speedWind from/ knotsBaromVisibWave heightAir tempDewpointWater temp
2015-Sep-03 03:33N 34°33' E 135°27'0 0.0
2015-Sep-02 23:27N 34°33' E 135°27'0 0.0
2015-Sep-02 22:32N 34°33' E 135°27'0 0.0
2015-Sep-02 21:33N 34°33' E 135°27'0 0.0
2015-Sep-02 20:23N 34°33' E 135°27'0 0.0
2015-Sep-02 19:27N 34°33' E 135°27'0 0.0
2015-Sep-02 18:15N 34°33' E 135°27'0 0.0
2015-Sep-02 16:30N 34°33' E 135°27'0 0.0
2015-Sep-02 08:15N 34°33' E 135°27'0 0.0
2015-Sep-02 07:21N 34°33' E 135°27'0 0.0
2015-Sep-02 06:33N 34°33' E 135°27'0 0.0
2015-Sep-02 02:33N 34°33' E 135°27'0 0.0
2015-Sep-02 01:33N 34°33' E 135°27'1 1.0
2015-Sep-02 00:33N 34°34' E 135°26'0 0.1
2015-Sep-01 23:29N 34°34' E 135°26'2 2.4
2015-Sep-01 22:33N 34°33' E 135°23'2 2.4
2015-Sep-01 21:33N 34°33' E 135°26'1 0.7
2015-Sep-01 20:33N 34°33' E 135°27'0 0.0
2015-Sep-01 19:33N 34°33' E 135°27'0 0.0
2015-Sep-01 18:33N 34°33' E 135°27'0 0.0
2015-Sep-01 17:33N 34°33' E 135°27'0 0.0
2015-Sep-01 16:33N 34°33' E 135°27'0 0.0
2015-Sep-01 15:33N 34°33' E 135°27'0 0.0
2015-Sep-01 14:33N 34°33' E 135°27'0 0.0
2015-Sep-01 13:33N 34°33' E 135°27'0 0.0
2015-Sep-01 12:33N 34°33' E 135°27'0 0.0
2015-Sep-01 11:33N 34°33' E 135°27'0 0.0
2015-Sep-01 10:33N 34°33' E 135°27'0 0.0
2015-Sep-01 09:33N 34°33' E 135°27'0 0.0
2015-Sep-01 08:11N 34°33' E 135°27'0 0.0
2015-Sep-01 07:33N 34°33' E 135°27'3 2.7
2015-Sep-01 06:31N 34°33' E 135°23'1212.0
2015-Sep-01 05:33N 34°24' E 135°14'1311.4
2015-Sep-01 04:28N 34°16' E 135°02'  
2015-Aug-27 09:28N 34°27' E 135°13'14 0.4
2015-Aug-25 23:21N 34°37' E 135°01'7 9.2
2015-Aug-25 22:33N 34°34' E 135°09'1110.4
2015-Aug-25 21:32N 34°25' E 135°04'1312.9
2015-Aug-25 20:33N 34°12' E 134°60'1110.8
2015-Aug-25 19:34N 34°21' E 135°08'1110.8
2015-Aug-25 18:34N 34°27' E 135°18'5 0.5
2015-Aug-25 08:25N 34°31' E 135°23'0 0.0
2015-Aug-25 07:31N 34°31' E 135°23'4 1.1
2015-Aug-25 04:10N 34°33' E 135°27'1 0.6
2015-Aug-25 02:33N 34°33' E 135°25'5 5.5
2015-Aug-25 01:34N 34°34' E 135°19'6 6.2
2015-Aug-25 00:32N 34°33' E 135°27'0 0.0
2015-Aug-24 23:33N 34°33' E 135°27'0 0.0
2015-Aug-24 22:34N 34°33' E 135°27'0 0.0
2015-Aug-24 21:30N 34°33' E 135°27'0 0.0
2015-Aug-24 20:34N 34°33' E 135°27'0 0.0
2015-Aug-24 19:34N 34°33' E 135°27'0 0.0
2015-Aug-24 18:34N 34°33' E 135°27'0 0.0
2015-Aug-24 17:34N 34°33' E 135°27'0 0.0
2015-Aug-24 16:34N 34°33' E 135°27'0 0.0
2015-Aug-24 15:32N 34°33' E 135°27'0 0.0
2015-Aug-24 12:26N 34°33' E 135°27'0 0.0
2015-Aug-24 10:26N 34°33' E 135°27'0 0.0
2015-Aug-24 09:15N 34°33' E 135°27'0 0.0
2015-Aug-24 08:28N 34°33' E 135°27'0 0.0
2015-Aug-24 07:17N 34°33' E 135°27'0 0.0
2015-Aug-24 06:33N 34°33' E 135°27'0 0.0
2015-Aug-24 05:33N 34°33' E 135°27'1 0.5
2015-Aug-24 04:34N 34°33' E 135°26'1 0.8
2015-Aug-24 03:34N 34°33' E 135°25'  
Track history (hours):
 
Tides and Currents Weather Stations Pressure Air Temp Water Temp Dewpoint Dewpoint Depression Visibility Wind Speed Wind Dir Waves Ship Positions

Kasagimaru

Last reported at 2015-Sep-03 03:33 UTC. Time now 2015-Sep-03 04:35 UTC.
Position N 34°33' E 135°27'.

Length 42 m; draft 3.5 m.

Type: Tug. MMSI: 431300268.

Date/timePositionNaut miles runAvg speedWind from/ knotsBaromVisibWave heightAir tempDewpointWater temp
2015-Sep-03 03:33N 34°33' E 135°27'0 0.0
2015-Sep-02 23:27N 34°33' E 135°27'0 0.0
2015-Sep-02 22:32N 34°33' E 135°27'0 0.0
2015-Sep-02 21:33N 34°33' E 135°27'0 0.0
2015-Sep-02 20:23N 34°33' E 135°27'0 0.0
2015-Sep-02 19:27N 34°33' E 135°27'0 0.0
2015-Sep-02 18:15N 34°33' E 135°27'0 0.0
2015-Sep-02 16:30N 34°33' E 135°27'0 0.0
2015-Sep-02 08:15N 34°33' E 135°27'0 0.0
2015-Sep-02 07:21N 34°33' E 135°27'0 0.0
2015-Sep-02 06:33N 34°33' E 135°27'0 0.0
2015-Sep-02 02:33N 34°33' E 135°27'0 0.0
2015-Sep-02 01:33N 34°33' E 135°27'1 1.0
2015-Sep-02 00:33N 34°34' E 135°26'0 0.1
2015-Sep-01 23:29N 34°34' E 135°26'2 2.4
2015-Sep-01 22:33N 34°33' E 135°23'2 2.4
2015-Sep-01 21:33N 34°33' E 135°26'1 0.7
2015-Sep-01 20:33N 34°33' E 135°27'0 0.0
2015-Sep-01 19:33N 34°33' E 135°27'0 0.0
2015-Sep-01 18:33N 34°33' E 135°27'0 0.0
2015-Sep-01 17:33N 34°33' E 135°27'0 0.0
2015-Sep-01 16:33N 34°33' E 135°27'0 0.0
2015-Sep-01 15:33N 34°33' E 135°27'0 0.0
2015-Sep-01 14:33N 34°33' E 135°27'0 0.0
2015-Sep-01 13:33N 34°33' E 135°27'0 0.0
2015-Sep-01 12:33N 34°33' E 135°27'0 0.0
2015-Sep-01 11:33N 34°33' E 135°27'0 0.0
2015-Sep-01 10:33N 34°33' E 135°27'0 0.0
2015-Sep-01 09:33N 34°33' E 135°27'0 0.0
2015-Sep-01 08:11N 34°33' E 135°27'0 0.0
2015-Sep-01 07:33N 34°33' E 135°27'3 2.7
2015-Sep-01 06:31N 34°33' E 135°23'1212.0
2015-Sep-01 05:33N 34°24' E 135°14'1311.4
2015-Sep-01 04:28N 34°16' E 135°02'  
2015-Aug-27 09:28N 34°27' E 135°13'14 0.4
2015-Aug-25 23:21N 34°37' E 135°01'7 9.2
2015-Aug-25 22:33N 34°34' E 135°09'1110.4
2015-Aug-25 21:32N 34°25' E 135°04'1312.9
2015-Aug-25 20:33N 34°12' E 134°60'1110.8
2015-Aug-25 19:34N 34°21' E 135°08'1110.8
2015-Aug-25 18:34N 34°27' E 135°18'5 0.5
2015-Aug-25 08:25N 34°31' E 135°23'0 0.0
2015-Aug-25 07:31N 34°31' E 135°23'4 1.1
2015-Aug-25 04:10N 34°33' E 135°27'1 0.6
2015-Aug-25 02:33N 34°33' E 135°25'5 5.5
2015-Aug-25 01:34N 34°34' E 135°19'6 6.2
2015-Aug-25 00:32N 34°33' E 135°27'0 0.0
2015-Aug-24 23:33N 34°33' E 135°27'0 0.0
2015-Aug-24 22:34N 34°33' E 135°27'0 0.0
2015-Aug-24 21:30N 34°33' E 135°27'0 0.0
2015-Aug-24 20:34N 34°33' E 135°27'0 0.0
2015-Aug-24 19:34N 34°33' E 135°27'0 0.0
2015-Aug-24 18:34N 34°33' E 135°27'0 0.0
2015-Aug-24 17:34N 34°33' E 135°27'0 0.0
2015-Aug-24 16:34N 34°33' E 135°27'0 0.0
2015-Aug-24 15:32N 34°33' E 135°27'0 0.0
2015-Aug-24 12:26N 34°33' E 135°27'0 0.0
2015-Aug-24 10:26N 34°33' E 135°27'0 0.0
2015-Aug-24 09:15N 34°33' E 135°27'0 0.0
2015-Aug-24 08:28N 34°33' E 135°27'0 0.0
2015-Aug-24 07:17N 34°33' E 135°27'0 0.0
2015-Aug-24 06:33N 34°33' E 135°27'0 0.0
2015-Aug-24 05:33N 34°33' E 135°27'1 0.5
2015-Aug-24 04:34N 34°33' E 135°26'1 0.8
2015-Aug-24 03:34N 34°33' E 135°25'  

Dump ship's entire track history